Time;durP1;ratioP1;P1;durP2;ratioP2;P2;SDS_P1;SDS_P2;PMS_P1;PMS_P2;Temp;Humidity;BMP_temperature;BMP_pressure;BME280_temperature;BME280_humidity;BME280_pressure;Samples;Min_cycle;Max_cycle;Signal;HPM_P1;HPM_P2
2021/12/11 00:00:28;;;;;;;84.20;48.38;;;;;;;0.97;100.00;100384.38;5190784;28;20034;-69
2021/12/11 00:03:03;;;;;;;83.88;47.45;;;;;;;0.90;100.00;100385.94;5190471;28;20038;-69
2021/12/11 00:05:36;;;;;;;81.65;45.88;;;;;;;0.89;100.00;100400.47;5190785;28;20102;-70
2021/12/11 00:08:10;;;;;;;81.43;46.53;;;;;;;0.87;100.00;100398.69;5190719;28;20037;-70
2021/12/11 00:10:47;;;;;;;85.50;47.42;;;;;;;0.85;100.00;100397.81;5189592;28;20034;-69
2021/12/11 00:13:23;;;;;;;90.43;49.83;;;;;;;0.83;100.00;100407.19;5190193;28;20039;-69
2021/12/11 00:15:55;;;;;;;92.03;47.63;;;;;;;0.81;100.00;100411.44;5190952;28;20552;-70
2021/12/11 00:18:28;;;;;;;87.90;48.45;;;;;;;0.81;100.00;100414.84;5190720;28;20101;-69
2021/12/11 00:21:08;;;;;;;91.95;48.33;;;;;;;0.77;100.00;100425.88;5190493;28;20457;-70
2021/12/11 00:24:06;;;;;;;90.72;46.05;;;;;;;0.77;100.00;100427.59;5190643;28;20034;-69
2021/12/11 00:26:42;;;;;;;97.15;49.88;;;;;;;0.78;100.00;100437.88;5190628;28;20117;-69
2021/12/11 00:29:18;;;;;;;94.97;50.40;;;;;;;0.78;100.00;100437.03;5225211;28;20033;-70
2021/12/11 00:31:54;;;;;;;97.10;50.70;;;;;;;0.76;100.00;100441.22;5233986;28;20087;-69
2021/12/11 00:34:26;;;;;;;98.60;50.08;;;;;;;0.76;100.00;100446.34;5233916;28;20564;-69
2021/12/11 00:37:01;;;;;;;98.40;49.72;;;;;;;0.76;100.00;100449.81;5234331;28;20033;-69
2021/12/11 00:39:38;;;;;;;101.55;50.65;;;;;;;0.68;100.00;100452.22;5233840;28;20048;-70
2021/12/11 00:42:12;;;;;;;89.63;47.58;;;;;;;0.67;100.00;100458.16;5234255;28;20472;-70
2021/12/11 00:44:47;;;;;;;93.93;47.78;;;;;;;0.64;100.00;100467.50;5233989;28;20092;-70
2021/12/11 00:47:23;;;;;;;90.70;48.35;;;;;;;0.60;100.00;100471.69;5214628;28;20072;-70
2021/12/11 00:50:06;;;;;;;100.28;50.17;;;;;;;0.56;100.00;100467.31;5213242;28;20038;-70
2021/12/11 00:52:37;;;;;;;;;;;;;;;0.51;100.00;100477.47;5214080;28;20029;-69
2021/12/11 00:55:21;;;;;;;81.83;42.53;;;;;;;0.47;100.00;100477.38;5217453;28;20372;-69
2021/12/11 00:58:08;;;;;;;85.55;45.58;;;;;;;0.42;100.00;100481.50;5217197;28;20331;-70
2021/12/11 01:00:55;;;;;;;93.40;47.15;;;;;;;0.41;100.00;100485.78;5217316;28;20037;-69
2021/12/11 01:03:33;;;;;;;89.78;47.17;;;;;;;0.39;100.00;100492.59;5217235;28;20033;-69
2021/12/11 01:06:13;;;;;;;81.55;41.97;;;;;;;0.34;100.00;100496.75;5216897;28;20754;-69
2021/12/11 01:08:56;;;;;;;79.20;44.60;;;;;;;0.30;100.00;100500.91;5216970;28;20040;-69
2021/12/11 01:11:35;;;;;;;88.72;45.60;;;;;;;0.20;100.00;100516.91;5216993;28;20060;-70
2021/12/11 01:14:28;;;;;;;78.30;40.65;;;;;;;0.20;100.00;100506.66;5216878;28;20033;-69
2021/12/11 01:17:20;;;;;;;78.03;40.45;;;;;;;0.08;100.00;100512.34;5217069;28;20053;-69
2021/12/11 01:19:59;;;;;;;77.75;39.88;;;;;;;0.07;100.00;100525.13;5216212;28;20033;-70
2021/12/11 01:22:36;;;;;;;76.03;40.85;;;;;;;0.03;100.00;100519.00;5216691;28;20029;-70
2021/12/11 01:25:19;;;;;;;77.88;42.35;;;;;;;0.00;100.00;100534.34;5217023;28;20428;-70
2021/12/11 01:27:52;;;;;;;;;;;;;;;-0.08;100.00;100541.81;5217144;28;20084;-69
2021/12/11 01:30:31;;;;;;;71.70;38.45;;;;;;;-0.05;100.00;100543.59;5216841;28;19921;-69
2021/12/11 01:33:06;;;;;;;95.80;43.78;;;;;;;-0.03;100.00;100534.25;5231703;28;20022;-69
2021/12/11 01:35:40;;;;;;;82.18;42.95;;;;;;;-0.04;100.00;100550.44;5216455;28;20201;-70
2021/12/11 01:38:16;;;;;;;85.07;43.42;;;;;;;-0.13;100.00;100563.91;5216994;28;20358;-69
2021/12/11 01:40:52;;;;;;;67.88;39.40;;;;;;;-0.16;100.00;100570.59;5216265;28;20041;-70
2021/12/11 01:43:28;;;;;;;82.47;41.05;;;;;;;-0.23;100.00;100578.13;5216406;28;20038;-69
2021/12/11 01:46:03;;;;;;;77.50;40.35;;;;;;;-0.28;100.00;100586.50;5216468;28;20037;-69
2021/12/11 01:48:38;;;;;;;68.68;40.03;;;;;;;-0.29;100.00;100588.22;5216622;28;20155;-70
2021/12/11 01:51:18;;;;;;;69.75;40.20;;;;;;;-0.32;100.00;100592.38;5215965;28;20163;-69
2021/12/11 01:54:06;;;;;;;73.10;39.58;;;;;;;-0.31;100.00;100597.53;5216272;28;20057;-69
2021/12/11 01:56:38;;;;;;;72.07;38.25;;;;;;;-0.29;100.00;100610.38;5215978;28;20034;-70
2021/12/11 01:59:19;;;;;;;74.73;39.70;;;;;;;-0.26;100.00;100623.28;5216197;28;20045;-68
2021/12/11 02:01:57;;;;;;;71.82;38.53;;;;;;;-0.24;100.00;100631.88;5216122;28;20272;-69
2021/12/11 02:04:32;;;;;;;73.70;38.15;;;;;;;-0.19;100.00;100635.47;5214723;28;20038;-69
2021/12/11 02:07:08;;;;;;;75.65;37.80;;;;;;;-0.14;100.00;100636.44;5215492;28;20098;-69
2021/12/11 02:09:44;;;;;;;78.70;40.80;;;;;;;-0.02;100.00;100641.03;5215792;28;20037;-69
2021/12/11 02:12:22;;;;;;;77.28;39.83;;;;;;;-0.01;100.00;100637.66;5215871;28;20025;-70
2021/12/11 02:14:55;;;;;;;74.88;40.08;;;;;;;0.00;100.00;100634.28;5215666;28;20037;-70
2021/12/11 02:17:52;;;;;;;70.90;38.70;;;;;;;-0.01;100.00;100651.34;5215501;28;20030;-69
2021/12/11 02:20:31;;;;;;;69.78;38.75;;;;;;;0.01;100.00;100648.81;5215437;28;20042;-68
2021/12/11 02:23:04;;;;;;;73.68;38.88;;;;;;;0.05;100.00;100657.44;5215600;28;20030;-68
2021/12/11 02:25:42;;;;;;;78.07;39.70;;;;;;;0.07;100.00;100658.38;5215519;28;20022;-69
2021/12/11 02:28:20;;;;;;;72.32;39.97;;;;;;;0.05;100.00;100662.56;5215198;28;20054;-68
2021/12/11 02:31:05;;;;;;;70.20;39.33;;;;;;;0.05;100.00;100665.13;5215381;28;20829;-69
2021/12/11 02:33:39;;;;;;;71.00;38.58;;;;;;;0.05;100.00;100678.84;5215386;28;20045;-69
2021/12/11 02:36:22;;;;;;;70.18;38.03;;;;;;;0.03;100.00;100685.59;5215237;28;20067;-69
2021/12/11 02:38:59;;;;;;;76.20;38.45;;;;;;;0.09;100.00;100692.59;5215490;28;20539;-69
2021/12/11 02:42:01;;;;;;;69.40;39.28;;;;;;;0.12;100.00;100695.25;5215412;28;20034;-68
2021/12/11 02:44:37;;;;;;;72.82;38.90;;;;;;;0.14;100.00;100697.03;5215082;28;20036;-68
2021/12/11 02:47:26;;;;;;;69.65;38.17;;;;;;;0.16;100.00;100697.06;5214857;28;20036;-68
2021/12/11 02:50:12;;;;;;;69.95;39.67;;;;;;;0.18;100.00;100698.00;5214935;28;20033;-68
2021/12/11 02:52:54;;;;;;;66.40;37.20;;;;;;;0.16;100.00;100704.75;5214515;28;20094;-68
2021/12/11 02:55:32;;;;;;;66.32;35.83;;;;;;;0.12;100.00;100708.94;5215009;28;20049;-68
2021/12/11 02:58:15;;;;;;;75.55;37.97;;;;;;;0.10;100.00;100715.72;5215124;28;20030;-69
2021/12/11 03:00:52;;;;;;;72.13;39.05;;;;;;;0.11;100.00;100716.59;5214958;28;20029;-69
2021/12/11 03:03:30;;;;;;;63.45;37.38;;;;;;;0.12;100.00;100723.47;5214916;28;20026;-70
2021/12/11 03:06:10;;;;;;;72.93;38.25;;;;;;;0.09;100.00;100724.22;5214743;28;20022;-68
2021/12/11 03:08:42;;;;;;;65.25;37.20;;;;;;;0.10;100.00;100728.53;5215018;28;20022;-69
2021/12/11 03:11:17;;;;;;;65.37;37.30;;;;;;;0.11;100.00;100726.84;5214695;28;20208;-69
2021/12/11 03:13:50;;;;;;;62.75;35.88;;;;;;;0.10;100.00;100736.22;5214575;28;20469;-69
2021/12/11 03:16:26;;;;;;;65.50;36.80;;;;;;;0.11;100.00;100737.97;5214037;28;20816;-69
2021/12/11 03:19:00;;;;;;;71.28;38.22;;;;;;;0.18;100.00;100744.16;5214699;28;20027;-68
2021/12/11 03:21:31;;;;;;;69.18;36.90;;;;;;;0.21;100.00;100741.69;5214050;28;20053;-69
2021/12/11 03:24:05;;;;;;;70.37;37.77;;;;;;;0.24;100.00;100749.44;5214394;28;20037;-69
2021/12/11 03:26:38;;;;;;;67.78;36.90;;;;;;;0.27;100.00;100754.63;5214449;28;20023;-69
2021/12/11 03:29:10;;;;;;;69.57;36.92;;;;;;;0.31;100.00;100756.47;5214587;28;20026;-69
2021/12/11 03:31:43;;;;;;;66.00;38.08;;;;;;;0.35;100.00;100755.75;5214005;28;20050;-68
2021/12/11 03:34:19;;;;;;;67.22;36.60;;;;;;;0.38;100.00;100754.09;5214417;28;20051;-70
2021/12/11 03:36:53;;;;;;;65.57;36.95;;;;;;;0.39;100.00;100763.50;5214097;28;20025;-69
2021/12/11 03:39:30;;;;;;;65.32;36.42;;;;;;;0.41;100.00;100761.88;5214034;28;20080;-70
2021/12/11 03:42:07;;;;;;;71.35;38.10;;;;;;;0.43;100.00;100765.34;5214435;28;20446;-70
2021/12/11 03:44:39;;;;;;;66.53;35.75;;;;;;;0.46;100.00;100765.44;5214129;28;20057;-69
2021/12/11 03:47:15;;;;;;;66.38;35.97;;;;;;;0.49;100.00;100766.38;5214451;28;20026;-70
2021/12/11 03:49:47;;;;;;;67.78;36.78;;;;;;;0.53;100.00;100768.22;5213947;28;20096;-70
2021/12/11 03:52:19;;;;;;;69.33;37.17;;;;;;;0.59;100.00;100777.75;5214024;28;20030;-70
2021/12/11 03:54:52;;;;;;;71.67;38.37;;;;;;;0.61;100.00;100773.56;5214151;28;20061;-69
2021/12/11 03:57:26;;;;;;;69.43;37.78;;;;;;;0.66;100.00;100778.78;5214222;28;20643;-70
2021/12/11 03:59:58;;;;;;;62.50;37.40;;;;;;;0.69;100.00;100777.22;5213723;28;20112;-69
2021/12/11 04:02:33;;;;;;;71.47;38.45;;;;;;;0.72;100.00;100777.28;5213843;28;20049;-70
2021/12/11 04:05:07;;;;;;;62.92;36.60;;;;;;;0.76;100.00;100780.81;5214114;28;20037;-70
2021/12/11 04:07:43;;;;;;;65.95;37.08;;;;;;;0.80;100.00;100785.19;5214067;28;20461;-70
2021/12/11 04:10:18;;;;;;;68.95;37.63;;;;;;;0.83;100.00;100779.28;5213977;28;20025;-70
2021/12/11 04:12:49;;;;;;;71.07;39.50;;;;;;;0.87;100.00;100791.34;5213589;28;20096;-70
2021/12/11 04:15:21;;;;;;;68.63;38.30;;;;;;;0.93;100.00;100793.22;5214086;28;20026;-70
2021/12/11 04:17:54;;;;;;;66.10;37.20;;;;;;;0.97;100.00;100805.31;5213999;28;20025;-71
2021/12/11 04:20:28;;;;;;;73.50;39.22;;;;;;;1.00;100.00;100796.00;5213716;28;20034;-70
2021/12/11 04:23:00;;;;;;;69.13;38.78;;;;;;;1.07;100.00;100808.13;5213891;28;20096;-71
2021/12/11 04:25:32;;;;;;;67.10;38.50;;;;;;;1.09;100.00;100811.63;5213930;28;20026;-69
2021/12/11 04:28:04;;;;;;;67.50;36.55;;;;;;;1.13;100.00;100817.72;5215196;28;20110;-70
2021/12/11 04:30:37;;;;;;;67.33;37.53;;;;;;;1.15;100.00;100817.75;5217752;28;20124;-70
2021/12/11 04:33:09;;;;;;;69.50;38.42;;;;;;;1.19;100.00;100817.88;5217817;28;20461;-70
2021/12/11 04:35:43;;;;;;;67.53;39.17;;;;;;;1.19;100.00;100811.84;5218035;28;20132;-69
2021/12/11 04:38:15;;;;;;;68.65;38.20;;;;;;;1.23;100.00;100823.97;5217437;28;20034;-70
2021/12/11 04:40:51;;;;;;;65.80;37.42;;;;;;;1.27;100.00;100830.91;5217796;28;20036;-69
2021/12/11 04:43:25;;;;;;;65.03;37.30;;;;;;;1.26;100.00;100830.03;5217526;28;20034;-70
2021/12/11 04:46:05;;;;;;;63.38;36.70;;;;;;;1.27;100.00;100831.78;5217671;28;20080;-69
2021/12/11 04:57:00;;;;;;;68.80;36.78;;;;;;;1.37;100.00;100857.69;5217502;28;20312;-69
2021/12/11 05:00:06;;;;;;;75.53;37.78;;;;;;;1.39;100.00;100862.03;5217142;28;22068;-69
2021/12/11 05:05:43;;;;;;;71.53;38.33;;;;;;;1.43;100.00;100863.88;5217148;28;20083;-70
2021/12/11 05:13:26;;;;;;;66.38;37.30;;;;;;;1.49;100.00;100878.56;5231997;28;20092;-70
2021/12/11 05:16:03;;;;;;;64.80;37.40;;;;;;;1.51;100.00;100874.31;5216706;28;20030;-69
2021/12/11 05:18:39;;;;;;;68.05;38.25;;;;;;;1.53;100.00;100876.94;5217104;28;20560;-69
2021/12/11 05:21:15;;;;;;;79.82;40.60;;;;;;;1.54;100.00;100884.69;5217039;28;20060;-70
2021/12/11 05:23:49;;;;;;;71.28;38.83;;;;;;;1.55;100.00;100888.13;5216849;28;20033;-70
2021/12/11 05:26:22;;;;;;;76.03;39.80;;;;;;;1.56;100.00;100892.44;5216428;28;20164;-70
2021/12/11 05:28:53;;;;;;;;;;;;;;;1.63;100.00;100902.03;5217075;28;20132;-69
2021/12/11 05:31:25;;;;;;;70.07;36.05;;;;;;;1.61;100.00;100899.44;5216607;28;20400;-70
2021/12/11 05:33:56;;;;;;;66.83;36.80;;;;;;;1.62;100.00;100902.88;5216445;28;20033;-70
2021/12/11 05:36:31;;;;;;;74.57;38.27;;;;;;;1.65;100.00;100900.38;5216688;28;20022;-69
2021/12/11 05:39:11;;;;;;;68.50;38.85;;;;;;;1.67;100.00;100900.41;5215914;28;20032;-70
2021/12/11 05:41:45;;;;;;;72.35;40.08;;;;;;;1.67;100.00;100911.56;5216610;28;20151;-70
2021/12/11 05:44:19;;;;;;;72.28;39.72;;;;;;;1.66;100.00;100912.41;5216324;28;20034;-69
2021/12/11 05:46:52;;;;;;;65.25;36.95;;;;;;;1.64;100.00;100909.78;5216445;28;20026;-69
2021/12/11 05:49:25;;;;;;;68.30;36.78;;;;;;;1.64;100.00;100920.06;5216518;28;20120;-70
2021/12/11 05:51:57;;;;;;;70.35;38.90;;;;;;;1.66;100.00;100919.22;5216487;28;20034;-70
2021/12/11 05:54:29;;;;;;;67.13;36.97;;;;;;;1.66;100.00;100921.78;5216204;28;20410;-70
2021/12/11 05:57:06;;;;;;;71.93;38.30;;;;;;;1.69;100.00;100930.47;5214386;28;20121;-70
2021/12/11 05:59:39;;;;;;;63.25;37.42;;;;;;;1.70;100.00;100933.91;5216133;28;20030;-70
2021/12/11 06:02:17;;;;;;;69.72;38.80;;;;;;;1.72;100.00;100927.09;5215958;28;20034;-69
2021/12/11 06:04:51;;;;;;;73.03;38.42;;;;;;;1.70;100.00;100923.63;5216187;28;20465;-70
2021/12/11 06:07:25;;;;;;;68.63;37.30;;;;;;;1.66;100.00;100927.81;5215844;28;20500;-70
2021/12/11 06:10:01;;;;;;;67.00;36.38;;;;;;;1.61;100.00;100934.53;5215784;28;20536;-70
2021/12/11 06:12:32;;;;;;;60.25;37.15;;;;;;;1.57;100.00;100933.56;5215681;28;20836;-70
2021/12/11 06:15:05;;;;;;;66.70;37.53;;;;;;;1.60;100.00;100937.94;5215763;28;20022;-70
2021/12/11 06:17:37;;;;;;;65.82;37.65;;;;;;;1.62;100.00;100947.41;5216010;28;20506;-69
2021/12/11 06:20:14;;;;;;;65.32;37.17;;;;;;;1.57;100.00;100943.00;5215586;28;20041;-69
2021/12/11 06:22:47;;;;;;;73.20;39.38;;;;;;;1.58;100.00;100953.31;5215729;28;20030;-69
2021/12/11 06:25:30;;;;;;;71.43;39.53;;;;;;;1.57;100.00;100956.69;5215226;28;20025;-69
2021/12/11 06:28:03;;;;;;;73.68;38.78;;;;;;;1.59;100.00;100956.75;5215433;28;20069;-68
2021/12/11 06:30:36;;;;;;;71.72;41.30;;;;;;;1.58;100.00;100968.72;5215483;28;20169;-69
2021/12/11 06:33:09;;;;;;;78.80;43.03;;;;;;;1.63;100.00;100963.72;5230964;28;20111;-68
2021/12/11 06:35:52;;;;;;;81.25;45.00;;;;;;;1.68;100.00;100974.97;5215414;28;20026;-70
2021/12/11 06:38:26;;;;;;;89.22;48.53;;;;;;;1.75;100.00;100973.44;5215305;28;20052;-70
2021/12/11 06:40:58;;;;;;;90.95;47.15;;;;;;;1.76;100.00;100983.75;5214918;28;20121;-68
2021/12/11 06:43:29;;;;;;;97.03;50.17;;;;;;;1.81;100.00;100978.75;5215449;28;20041;-68
2021/12/11 06:46:02;;;;;;;103.23;51.07;;;;;;;1.84;100.00;100986.53;5215171;28;20160;-69
2021/12/11 06:48:33;;;;;;;97.38;52.03;;;;;;;1.90;100.00;100997.00;5215351;28;20029;-69
2021/12/11 06:51:06;;;;;;;100.03;52.40;;;;;;;1.97;100.00;101000.59;5214490;28;20378;-69
2021/12/11 06:53:45;;;;;;;109.68;55.20;;;;;;;1.99;100.00;100998.91;5215175;28;20084;-69
2021/12/11 06:56:19;;;;;;;101.82;52.72;;;;;;;2.11;100.00;101000.91;5215065;28;20026;-69
2021/12/11 06:58:52;;;;;;;104.43;55.13;;;;;;;2.08;100.00;101012.00;5214931;28;20354;-70
2021/12/11 07:01:25;;;;;;;106.65;55.33;;;;;;;2.11;100.00;101013.78;5214909;28;20175;-70
2021/12/11 07:03:59;;;;;;;107.78;56.15;;;;;;;2.14;100.00;101012.16;5214623;28;20034;-70
2021/12/11 07:06:31;;;;;;;108.75;58.00;;;;;;;2.19;100.00;101020.88;5215022;28;20062;-70
2021/12/11 07:09:05;;;;;;;99.60;54.88;;;;;;;2.21;100.00;101020.91;5214491;28;20164;-70
2021/12/11 07:11:39;;;;;;;94.43;53.50;;;;;;;2.27;100.00;101028.78;5214759;28;20037;-70
2021/12/11 07:14:16;;;;;;;104.57;56.53;;;;;;;2.29;100.00;101032.25;5214877;28;20037;-70
2021/12/11 07:16:48;;;;;;;104.05;56.58;;;;;;;2.30;100.00;101026.28;5214578;28;20022;-71
2021/12/11 07:19:19;;;;;;;106.00;56.63;;;;;;;2.34;100.00;101038.38;5214959;28;20030;-70
2021/12/11 07:21:51;;;;;;;102.47;55.97;;;;;;;2.38;100.00;101031.59;5214060;28;20438;-70
2021/12/11 07:24:30;;;;;;;97.83;55.10;;;;;;;2.36;100.00;101035.84;5214626;28;20457;-69
2021/12/11 07:27:04;;;;;;;94.80;54.22;;;;;;;2.37;100.00;101048.75;5214432;28;20393;-70
2021/12/11 07:29:36;;;;;;;94.95;55.30;;;;;;;2.41;100.00;101054.84;5214130;28;20105;-70
2021/12/11 07:32:08;;;;;;;95.85;53.75;;;;;;;2.46;100.00;101065.25;5214219;28;20512;-70
2021/12/11 07:34:40;;;;;;;99.10;53.20;;;;;;;2.49;100.00;101066.19;5214119;28;20030;-70
2021/12/11 07:37:13;;;;;;;85.32;49.20;;;;;;;2.54;100.00;101074.03;5214345;28;20397;-71
2021/12/11 07:39:44;;;;;;;83.05;49.20;;;;;;;2.56;100.00;101067.22;5214214;28;20466;-70
2021/12/11 07:42:16;;;;;;;85.73;47.50;;;;;;;2.57;100.00;101078.38;5213733;28;20037;-69
2021/12/11 07:44:47;;;;;;;82.67;46.37;;;;;;;2.61;100.00;101075.94;5213703;28;20033;-70
2021/12/11 07:47:18;;;;;;;66.87;42.37;;;;;;;2.70;100.00;101077.84;5213838;28;20108;-70
2021/12/11 07:49:50;;;;;;;66.80;40.20;;;;;;;2.68;100.00;101077.81;5214167;28;20095;-69
2021/12/11 07:52:21;;;;;;;66.93;40.60;;;;;;;2.77;100.00;101087.47;5213954;28;20428;-69
2021/12/11 07:54:53;;;;;;;72.27;38.87;;;;;;;2.76;100.00;101084.84;5213964;28;20037;-70
2021/12/11 07:57:24;;;;;;;64.27;36.23;;;;;;;2.82;100.00;101090.13;5213497;28;20380;-70
2021/12/11 07:59:56;;;;;;;64.80;36.90;;;;;;;2.84;100.00;101101.34;5213473;28;20033;-70
2021/12/11 08:02:27;;;;;;;60.17;33.87;;;;;;;2.87;100.00;101101.44;5213909;28;20078;-71
2021/12/11 08:04:58;;;;;;;58.87;34.00;;;;;;;2.92;100.00;101100.69;5219507;28;20334;-71
2021/12/11 08:07:30;;;;;;;56.17;31.97;;;;;;;3.02;100.00;101111.22;5223155;28;20021;-71
2021/12/11 08:10:05;;;;;;;49.10;27.03;;;;;;;3.06;100.00;101113.03;5230723;28;20033;-71
2021/12/11 08:12:37;;;;;;;50.72;27.42;;;;;;;3.05;100.00;101113.88;5233728;28;20033;-69
2021/12/11 08:15:12;;;;;;;42.90;24.80;;;;;;;3.08;100.00;101124.25;5234013;28;20091;-69
2021/12/11 08:17:50;;;;;;;42.80;22.90;;;;;;;3.08;100.00;101122.53;5234160;28;20026;-70
2021/12/11 08:20:25;;;;;;;41.28;21.00;;;;;;;3.15;100.00;101128.69;5233883;28;20508;-71
2021/12/11 08:22:58;;;;;;;44.90;20.83;;;;;;;3.14;100.00;101131.22;5233853;28;20033;-70
2021/12/11 08:25:32;;;;;;;48.30;20.38;;;;;;;3.16;100.00;101134.72;5233333;28;20021;-72
2021/12/11 08:28:06;;;;;;;38.78;18.10;;;;;;;3.20;100.00;101139.09;5233883;28;20381;-71
2021/12/11 08:30:43;;;;;;;36.40;16.90;;;;;;;3.23;100.00;101144.31;5233552;28;20141;-72
2021/12/11 08:33:14;;;;;;;43.17;16.35;;;;;;;3.25;100.00;101151.28;5233604;28;20397;-70
2021/12/11 08:35:47;;;;;;;34.97;17.77;;;;;;;3.33;100.00;101163.44;5234070;28;20079;-69
2021/12/11 08:38:19;;;;;;;38.30;14.73;;;;;;;3.40;100.00;101161.03;5234016;28;20022;-71
2021/12/11 08:40:53;;;;;;;29.27;13.13;;;;;;;3.59;100.00;101166.59;5233765;28;20041;-70
2021/12/11 08:43:26;;;;;;;37.13;12.48;;;;;;;3.72;100.00;101167.72;5233362;28;20287;-70
2021/12/11 08:46:12;;;;;;;24.88;11.93;;;;;;;3.88;100.00;101174.97;5233716;28;20036;-71
2021/12/11 08:48:46;;;;;;;31.50;9.82;;;;;;;4.10;100.00;101172.81;5233895;28;20548;-69
2021/12/11 08:51:33;;;;;;;30.27;9.63;;;;;;;4.24;100.00;101188.59;5233721;28;20030;-69
2021/12/11 08:54:05;;;;;;;37.40;8.18;;;;;;;4.29;100.00;101184.38;5233871;28;20017;-71
2021/12/11 08:56:39;;;;;;;29.98;7.22;;;;;;;4.40;100.00;101182.00;5233679;28;20563;-69
2021/12/11 08:59:16;;;;;;;31.83;8.82;;;;;;;4.46;100.00;101193.31;5233847;28;20082;-68
2021/12/11 09:02:06;;;;;;;23.63;7.20;;;;;;;4.56;100.00;101190.06;5233396;28;20029;-70
2021/12/11 09:04:47;;;;;;;21.77;6.50;;;;;;;4.78;100.00;101203.34;5233655;28;20029;-68
2021/12/11 09:07:42;;;;;;;19.10;5.78;;;;;;;4.97;100.00;101211.44;5233314;28;20037;-69
2021/12/11 09:10:33;;;;;;;28.38;6.90;;;;;;;5.10;100.00;101216.84;5233479;28;20146;-70
2021/12/11 09:13:11;;;;;;;23.60;5.40;;;;;;;5.15;99.66;101221.19;5233283;28;20025;-69
2021/12/11 09:15:54;;;;;;;21.73;5.40;;;;;;;5.28;98.58;101236.94;5237043;28;20469;-71
2021/12/11 09:18:34;;;;;;;24.95;5.90;;;;;;;5.50;98.76;101247.59;5237067;28;20057;-70
2021/12/11 09:21:11;;;;;;;20.38;5.68;;;;;;;5.71;98.02;101246.19;5236650;28;20091;-70
2021/12/11 09:24:03;;;;;;;19.23;4.45;;;;;;;5.94;96.42;101255.16;5236797;28;20041;-69
2021/12/11 09:26:54;;;;;;;18.02;4.93;;;;;;;6.25;95.97;101259.88;5236849;28;20358;-69
2021/12/11 09:30:00;;;;;;;21.17;4.80;;;;;;;6.54;93.53;101268.88;5236055;28;20142;-72
2021/12/11 09:32:34;;;;;;;21.23;4.35;;;;;;;6.78;91.25;101267.44;5229723;28;20177;-72
2021/12/11 09:35:06;;;;;;;14.57;4.82;;;;;;;6.89;90.67;101276.19;5236531;28;20566;-70
2021/12/11 09:37:38;;;;;;;14.93;4.53;;;;;;;7.00;89.10;101278.88;5236683;28;20026;-71
2021/12/11 09:40:36;;;;;;;18.77;4.95;;;;;;;7.52;89.43;101283.66;5234859;28;20334;-68
2021/12/11 09:43:24;;;;;;;15.18;3.90;;;;;;;7.64;87.34;101290.66;5235081;28;20086;-69
2021/12/11 09:45:56;;;;;;;16.52;4.20;;;;;;;7.43;86.16;101300.00;5232412;28;20033;-68
2021/12/11 09:48:27;;;;;;;14.85;4.18;;;;;;;7.41;87.10;101312.09;5226855;28;20040;-69
2021/12/11 09:51:04;;;;;;;18.07;4.30;;;;;;;7.16;86.78;101305.81;5218677;28;20033;-69
2021/12/11 09:53:40;;;;;;;17.77;5.05;;;;;;;6.84;88.74;101321.03;5215360;28;20397;-69
2021/12/11 09:56:19;;;;;;;15.90;4.53;;;;;;;6.68;89.69;101322.56;5214817;28;20488;-68
2021/12/11 09:58:51;;;;;;;15.98;4.38;;;;;;;6.55;89.94;101331.91;5228046;28;20041;-68
2021/12/11 10:01:31;;;;;;;17.47;4.40;;;;;;;6.41;90.46;101330.88;5235520;28;20049;-70
2021/12/11 10:04:13;;;;;;;12.60;4.00;;;;;;;6.26;91.49;101332.41;5235718;28;20025;-69
2021/12/11 10:07:23;;;;;;;17.87;5.53;;;;;;;6.23;92.46;101332.38;5234827;28;20029;-69
2021/12/11 10:09:53;;;;;;;21.02;5.55;;;;;;;6.14;92.74;101340.00;5235115;28;20327;-70
2021/12/11 10:12:28;;;;;;;24.98;6.03;;;;;;;6.15;93.48;101336.56;5235996;28;20029;-69
2021/12/11 10:15:14;;;;;;;18.23;5.38;;;;;;;6.21;93.40;101347.00;5234566;28;20038;-70
2021/12/11 10:17:53;;;;;;;14.23;5.43;;;;;;;6.09;93.50;101346.84;5235930;28;20025;-70
2021/12/11 10:20:34;;;;;;;19.83;5.82;;;;;;;6.07;93.82;101349.41;5235825;28;20093;-71
2021/12/11 10:23:10;;;;;;;21.88;6.90;;;;;;;6.12;93.58;101357.25;5235722;28;20025;-69
2021/12/11 10:25:43;;;;;;;15.65;5.10;;;;;;;6.15;92.97;101362.44;5234695;28;20108;-69
2021/12/11 10:28:18;;;;;;;21.27;5.88;;;;;;;6.29;92.86;101358.34;5234103;28;20046;-71
2021/12/11 10:30:55;;;;;;;23.25;5.90;;;;;;;6.86;92.74;101363.38;5235780;28;20053;-71
2021/12/11 10:33:28;;;;;;;19.58;6.40;;;;;;;7.09;89.72;101367.09;5235794;28;20041;-68
2021/12/11 10:36:06;;;;;;;14.20;5.10;;;;;;;7.33;87.96;101359.59;5235882;28;20396;-69
2021/12/11 10:38:38;;;;;;;17.75;4.55;;;;;;;7.79;86.96;101371.25;5235375;28;20025;-68
2021/12/11 10:41:11;;;;;;;21.00;5.65;;;;;;;8.10;84.48;101371.47;5234351;28;20437;-69
2021/12/11 10:43:46;;;;;;;18.20;5.72;;;;;;;8.38;82.87;101374.22;5234113;28;20124;-69
2021/12/11 10:46:18;;;;;;;17.33;5.60;;;;;;;8.56;81.59;101381.28;5234575;28;20036;-70
2021/12/11 10:48:51;;;;;;;13.97;5.67;;;;;;;8.88;80.34;101380.56;5234634;28;20037;-70
2021/12/11 10:51:28;;;;;;;17.67;5.25;;;;;;;8.88;79.54;101391.81;5234736;28;20026;-71
2021/12/11 10:54:00;;;;;;;16.08;5.55;;;;;;;8.91;78.69;101397.03;5234314;28;20515;-70
2021/12/11 10:56:31;;;;;;;13.50;4.43;;;;;;;9.18;77.47;101394.53;5234805;28;20079;-71
2021/12/11 10:59:10;;;;;;;15.70;4.20;;;;;;;9.34;76.05;101398.91;5234585;28;20030;-69
2021/12/11 11:02:05;;;;;;;15.65;4.55;;;;;;;9.22;77.03;101402.34;5235050;28;20156;-68
2021/12/11 11:04:47;;;;;;;14.18;3.97;;;;;;;8.70;78.93;101407.34;5234831;28;20026;-69
2021/12/11 11:07:20;;;;;;;17.05;4.95;;;;;;;8.04;80.18;101416.41;5235369;28;20034;-69
2021/12/11 11:09:56;;;;;;;16.05;3.70;;;;;;;7.96;81.72;101428.47;5231404;28;20088;-68
2021/12/11 11:12:29;;;;;;;10.82;3.80;;;;;;;7.76;82.35;101425.72;5224460;28;20030;-69
2021/12/11 11:15:01;;;;;;;14.18;4.80;;;;;;;7.67;83.67;101428.22;5223673;28;20129;-70
2021/12/11 11:17:33;;;;;;;13.20;4.30;;;;;;;7.49;83.91;101439.28;5224424;28;20104;-69
2021/12/11 11:20:08;;;;;;;;;;;;;;;7.71;83.53;101437.78;5225482;28;20026;-69
2021/12/11 11:22:42;;;;;;;17.10;7.22;;;;;;;7.24;84.87;101451.09;5227232;28;19921;-70
2021/12/11 11:25:25;;;;;;;16.50;5.75;;;;;;;7.26;86.02;101451.97;5234978;28;20091;-70
2021/12/11 11:28:08;;;;;;;13.63;4.85;;;;;;;7.29;85.35;101444.25;5234719;28;20458;-69
2021/12/11 11:30:47;;;;;;;15.15;4.05;;;;;;;7.07;85.88;101451.78;5234741;28;20056;-69
2021/12/11 11:33:19;;;;;;;15.00;4.30;;;;;;;7.05;86.34;101453.50;5234760;28;20098;-71
2021/12/11 11:35:51;;;;;;;15.37;4.20;;;;;;;7.21;86.42;101451.97;5226010;28;20416;-71
2021/12/11 11:38:28;;;;;;;23.97;4.47;;;;;;;7.29;85.51;101460.69;5228613;28;20359;-70
2021/12/11 11:41:10;;;;;;;13.75;4.60;;;;;;;7.46;85.27;101463.47;5230512;28;20095;-69
2021/12/11 11:43:42;;;;;;;17.92;6.07;;;;;;;7.80;85.63;101473.31;5227522;28;20420;-69
2021/12/11 11:46:15;;;;;;;17.35;4.57;;;;;;;8.12;82.89;101470.16;5223942;28;20469;-69
2021/12/11 11:48:51;;;;;;;12.40;3.22;;;;;;;8.39;80.86;101470.38;5222782;28;20034;-70
2021/12/11 11:51:30;;;;;;;21.58;5.57;;;;;;;8.01;81.58;101480.44;5214864;28;20056;-70
2021/12/11 11:54:04;;;;;;;15.18;4.78;;;;;;;7.67;82.99;101486.16;5213888;28;20033;-69
2021/12/11 11:56:41;;;;;;;26.70;4.40;;;;;;;7.48;83.36;101487.69;5213867;28;20480;-68
2021/12/11 11:59:13;;;;;;;15.40;5.65;;;;;;;7.42;84.15;101489.34;5213429;28;20033;-69
2021/12/11 12:01:53;;;;;;;18.33;4.88;;;;;;;7.57;84.84;101486.94;5214109;28;20061;-69
2021/12/11 12:04:25;;;;;;;17.40;3.72;;;;;;;7.64;83.58;101482.69;5213683;28;20113;-68
2021/12/11 12:07:00;;;;;;;15.40;4.90;;;;;;;7.40;83.77;101494.50;5213658;28;20079;-71
2021/12/11 12:09:36;;;;;;;19.88;4.97;;;;;;;7.10;84.04;101497.63;5213625;28;20022;-71
2021/12/11 12:12:10;;;;;;;15.63;4.30;;;;;;;6.83;85.60;101504.16;5213629;28;20026;-70